createdAt,value
2022-12-11T00:02:57.210Z,10.85
2022-12-11T00:08:02.589Z,11.28
2022-12-11T00:13:06.925Z,11.43
2022-12-11T00:18:13.841Z,12.09
2022-12-11T00:23:19.184Z,11.47
2022-12-11T00:28:23.924Z,11.26
2022-12-11T00:33:28.423Z,11.35
2022-12-11T00:38:33.774Z,11.22
2022-12-11T00:43:37.789Z,11.30
2022-12-11T00:48:41.645Z,11.18
2022-12-11T00:53:47.018Z,11.18
2022-12-11T00:58:51.003Z,11.11
2022-12-11T01:03:55.585Z,11.44
2022-12-11T01:09:29.883Z,11.38
2022-12-11T01:14:34.327Z,11.31
2022-12-11T01:19:38.558Z,11.25
2022-12-11T01:24:44.270Z,11.03
2022-12-11T01:29:49.581Z,11.08
2022-12-11T01:34:53.688Z,10.92
2022-12-11T01:39:59.107Z,11.65
2022-12-11T01:45:42.096Z,11.96
2022-12-11T01:50:50.440Z,12.26
2022-12-11T01:55:58.543Z,11.98
2022-12-11T02:01:04.221Z,12.25
2022-12-11T02:06:29.000Z,12.32
2022-12-11T02:11:44.376Z,12.19
2022-12-11T02:16:55.055Z,12.48
2022-12-11T02:22:03.068Z,12.53
2022-12-11T02:27:21.452Z,12.48
2022-12-11T02:32:30.857Z,12.22
2022-12-11T02:37:38.851Z,11.84
2022-12-11T02:42:45.359Z,12.34
2022-12-11T02:47:51.832Z,12.43
2022-12-11T02:52:58.820Z,12.58
2022-12-11T02:58:08.132Z,12.36
2022-12-11T03:03:13.913Z,12.23
2022-12-11T03:08:18.841Z,12.10
2022-12-11T03:13:24.631Z,12.28
2022-12-11T03:18:36.364Z,12.19
2022-12-11T03:23:46.640Z,11.95
2022-12-11T03:28:57.736Z,11.58
2022-12-11T03:34:10.172Z,11.21
2022-12-11T03:39:18.968Z,10.98
2022-12-11T03:44:25.475Z,10.80
2022-12-11T03:49:34.900Z,10.65
2022-12-11T03:54:40.137Z,10.67
2022-12-11T03:59:44.239Z,10.61
2022-12-11T04:04:51.190Z,10.47
2022-12-11T04:09:55.143Z,10.33
2022-12-11T04:15:04.723Z,10.11
2022-12-11T04:20:30.140Z,9.79
2022-12-11T04:25:34.018Z,9.69
2022-12-11T04:30:38.498Z,9.39
2022-12-11T04:35:43.936Z,9.18
2022-12-11T04:40:47.940Z,9.19
2022-12-11T04:45:51.902Z,9.03
2022-12-11T04:50:57.223Z,8.94
2022-12-11T04:56:01.167Z,8.90
2022-12-11T05:01:08.994Z,8.70
2022-12-11T05:06:14.769Z,8.56
2022-12-11T05:11:18.831Z,8.55
2022-12-11T05:16:23.173Z,8.48
2022-12-11T05:21:34.650Z,8.31
2022-12-11T05:26:39.111Z,8.40
2022-12-11T05:31:43.057Z,8.49
2022-12-11T05:36:48.522Z,8.64
2022-12-11T05:41:53.832Z,8.57
2022-12-11T05:46:58.205Z,8.55
2022-12-11T05:52:03.609Z,8.67
2022-12-11T05:57:07.533Z,8.58
2022-12-11T06:02:11.608Z,8.68
2022-12-11T06:07:17.032Z,8.70
2022-12-11T06:12:21.065Z,8.84
2022-12-11T06:17:25.341Z,8.86
2022-12-11T06:22:31.604Z,8.72
2022-12-11T06:27:35.508Z,8.81
2022-12-11T06:32:39.538Z,8.87
2022-12-11T06:37:44.785Z,8.87
2022-12-11T06:42:48.716Z,9.30
2022-12-11T06:47:52.635Z,9.32
2022-12-11T06:52:58.405Z,9.62
2022-12-11T06:58:02.687Z,9.80
2022-12-11T07:03:10.123Z,10.01
2022-12-11T07:08:17.056Z,10.78
2022-12-11T07:13:21.245Z,11.25
2022-12-11T07:18:25.393Z,11.54
2022-12-11T07:23:30.958Z,11.70
2022-12-11T07:28:36.055Z,11.67
2022-12-11T07:33:40.498Z,11.99
2022-12-11T07:38:45.952Z,12.37
2022-12-11T07:43:50.096Z,12.93
2022-12-11T07:48:55.289Z,13.29
2022-12-11T07:54:03.035Z,13.15
2022-12-11T07:59:08.524Z,12.85
2022-12-11T08:04:15.805Z,12.70
2022-12-11T08:09:22.827Z,12.66
2022-12-11T08:14:26.758Z,12.58
2022-12-11T08:19:30.794Z,12.53
2022-12-11T08:24:36.191Z,12.65
2022-12-11T08:29:40.325Z,12.64
2022-12-11T08:34:44.414Z,12.60
2022-12-11T08:39:50.029Z,12.52
2022-12-11T08:44:54.133Z,12.55
2022-12-11T08:49:58.297Z,12.81
2022-12-11T08:55:03.822Z,12.73
2022-12-11T09:00:10.353Z,12.78
2022-12-11T09:05:14.649Z,12.74
2022-12-11T09:10:20.534Z,12.79
2022-12-11T09:15:24.587Z,12.97
2022-12-11T09:20:28.987Z,13.21
2022-12-11T09:25:34.431Z,13.26
2022-12-11T09:30:38.449Z,13.65
2022-12-11T09:35:42.510Z,13.38
2022-12-11T09:40:47.944Z,13.27
2022-12-11T09:45:52.709Z,13.13
2022-12-11T09:50:57.239Z,13.34
2022-12-11T09:56:08.605Z,13.53
2022-12-11T10:01:20.302Z,13.39
2022-12-11T10:06:31.080Z,13.54
2022-12-11T10:12:03.157Z,13.72
2022-12-11T10:17:13.355Z,13.89
2022-12-11T10:22:22.510Z,13.60
2022-12-11T10:27:31.578Z,13.66
2022-12-11T10:32:49.988Z,13.64
2022-12-11T10:37:58.141Z,13.58
2022-12-11T10:43:03.738Z,13.60
2022-12-11T10:48:12.787Z,13.67
2022-12-11T10:53:23.153Z,13.81
2022-12-11T10:58:34.137Z,14.04
2022-12-11T11:03:55.499Z,14.46
2022-12-11T11:09:01.492Z,14.79
2022-12-11T11:14:13.473Z,15.09
2022-12-11T11:19:24.727Z,14.49
2022-12-11T11:24:34.607Z,14.41
2022-12-11T11:29:42.113Z,14.47
2022-12-11T11:34:46.152Z,14.48
2022-12-11T11:39:53.957Z,14.24
2022-12-11T11:45:06.910Z,13.85
2022-12-11T11:50:18.932Z,13.87
2022-12-11T11:55:42.273Z,13.99
2022-12-11T12:00:47.738Z,13.89
2022-12-11T12:05:56.578Z,13.75
2022-12-11T12:11:05.064Z,13.79
2022-12-11T12:16:51.091Z,13.65
2022-12-11T12:21:51.200Z,13.59
2022-12-11T12:27:01.808Z,13.52
2022-12-11T12:32:16.543Z,13.51
2022-12-11T12:37:35.337Z,13.43
2022-12-11T12:42:47.401Z,13.24
2022-12-11T12:47:53.798Z,13.04
2022-12-11T12:52:58.939Z,12.83
2022-12-11T12:58:05.991Z,12.66
2022-12-11T13:03:17.670Z,12.49
2022-12-11T13:08:26.805Z,12.37
2022-12-11T13:13:38.382Z,11.68
2022-12-11T13:18:45.623Z,11.41
2022-12-11T13:23:50.231Z,11.07
2022-12-11T13:28:54.493Z,10.92
2022-12-11T13:34:09.068Z,10.85
2022-12-11T13:39:20.248Z,11.00
2022-12-11T13:44:27.976Z,10.76
2022-12-11T13:49:38.887Z,10.62
2022-12-11T13:54:49.660Z,10.54
2022-12-11T13:59:54.985Z,10.51
2022-12-11T14:05:03.578Z,10.42
2022-12-11T14:10:15.781Z,10.45
2022-12-11T14:15:20.272Z,10.47
2022-12-11T14:20:29.119Z,10.31
2022-12-11T14:25:33.124Z,10.33
2022-12-11T14:30:39.309Z,10.25
2022-12-11T14:35:45.736Z,10.15
2022-12-11T14:40:54.517Z,10.02
2022-12-11T14:46:02.715Z,9.87
2022-12-11T14:51:14.007Z,9.09
2022-12-11T14:56:21.315Z,9.34
2022-12-11T15:01:29.173Z,9.32
2022-12-11T15:06:36.892Z,8.46
2022-12-11T15:11:41.091Z,8.03
2022-12-11T15:16:45.620Z,8.19
2022-12-11T15:21:52.996Z,7.94
2022-12-11T15:27:01.139Z,7.44
2022-12-11T15:32:19.680Z,7.57
2022-12-11T15:37:27.213Z,7.08
2022-12-11T15:42:33.768Z,7.07
2022-12-11T15:47:37.744Z,6.99
2022-12-11T15:52:43.263Z,6.74
2022-12-11T15:57:51.276Z,6.59
2022-12-11T16:02:56.279Z,6.58
2022-12-11T16:08:01.828Z,5.86
2022-12-11T16:13:06.090Z,6.14
2022-12-11T16:18:11.979Z,5.75
2022-12-11T16:23:18.464Z,5.96
2022-12-11T16:28:22.551Z,5.41
2022-12-11T16:33:26.582Z,5.20
2022-12-11T16:38:32.544Z,5.12
2022-12-11T16:43:36.628Z,5.46
2022-12-11T16:48:40.739Z,4.86
2022-12-11T16:53:46.222Z,4.95
2022-12-11T16:58:50.360Z,4.98
2022-12-11T17:03:54.903Z,4.99
2022-12-11T17:09:00.244Z,5.35
2022-12-11T17:14:04.300Z,5.37
2022-12-11T17:19:09.494Z,4.89
2022-12-11T17:24:14.993Z,4.40
2022-12-11T17:29:20.232Z,3.99
2022-12-11T17:34:24.209Z,3.72
2022-12-11T17:39:30.062Z,3.78
2022-12-11T17:44:34.231Z,3.67
2022-12-11T17:49:39.783Z,4.34
2022-12-11T17:54:45.521Z,4.46
2022-12-11T17:59:49.612Z,4.24
2022-12-11T18:04:55.161Z,4.02
2022-12-11T18:10:00.815Z,4.19
2022-12-11T18:15:05.960Z,4.23
2022-12-11T18:20:14.594Z,3.61
2022-12-11T18:25:20.370Z,3.49
2022-12-11T18:30:25.510Z,3.76
2022-12-11T18:35:29.993Z,3.83
2022-12-11T18:40:35.540Z,3.49
2022-12-11T18:45:41.504Z,3.70
2022-12-11T18:50:47.080Z,3.52
2022-12-11T18:55:57.121Z,3.83
2022-12-11T19:01:08.128Z,3.99
2022-12-11T19:06:14.495Z,3.82
2022-12-11T19:11:21.623Z,3.87
2022-12-11T19:16:29.773Z,3.62
2022-12-11T19:21:35.566Z,3.80
2022-12-11T19:26:41.039Z,3.96
2022-12-11T19:31:45.653Z,3.90
2022-12-11T19:36:49.785Z,3.47
2022-12-11T19:41:55.178Z,2.77
2022-12-11T19:46:59.448Z,2.55
2022-12-11T19:52:04.738Z,3.00
2022-12-11T19:57:10.755Z,2.89
2022-12-11T20:02:14.689Z,2.78
2022-12-11T20:07:19.136Z,3.16
2022-12-11T20:12:24.553Z,3.45
2022-12-11T20:17:29.602Z,2.89
2022-12-11T20:22:34.581Z,3.34
2022-12-11T20:27:40.550Z,3.35
2022-12-11T20:32:45.019Z,3.25
2022-12-11T20:37:49.200Z,3.48
2022-12-11T20:42:54.679Z,3.08
2022-12-11T20:47:58.677Z,3.28
2022-12-11T20:53:02.859Z,3.21
2022-12-11T20:58:08.967Z,3.16
2022-12-11T21:03:12.906Z,2.76
2022-12-11T21:08:16.921Z,2.22
2022-12-11T21:13:22.441Z,2.44
2022-12-11T21:18:26.430Z,2.39
2022-12-11T21:23:30.835Z,1.95
2022-12-11T21:28:36.569Z,1.95
2022-12-11T21:33:40.799Z,1.82
2022-12-11T21:38:46.267Z,1.88
2022-12-11T21:49:17.802Z,2.72
2022-12-11T21:54:22.000Z,2.73
2022-12-11T21:59:27.917Z,2.54
2022-12-11T22:04:32.052Z,2.23
2022-12-11T22:09:37.012Z,2.23
2022-12-11T22:14:42.475Z,2.41
2022-12-11T22:19:46.628Z,2.66
2022-12-11T22:24:50.970Z,2.58
2022-12-11T22:29:56.503Z,3.00
2022-12-11T22:35:00.602Z,2.76
2022-12-11T22:40:05.235Z,2.40
2022-12-11T22:45:12.837Z,2.66
2022-12-11T22:50:18.289Z,1.97
2022-12-11T22:55:22.241Z,1.97
2022-12-11T23:00:27.823Z,1.90
2022-12-11T23:05:31.815Z,1.77
2022-12-11T23:10:35.772Z,2.19
2022-12-11T23:15:41.082Z,2.51
2022-12-11T23:20:44.969Z,2.41
2022-12-11T23:25:48.963Z,2.25
2022-12-11T23:30:55.821Z,2.32
2022-12-11T23:36:00.317Z,2.04
2022-12-11T23:41:06.166Z,1.71
2022-12-11T23:46:14.933Z,2.13
2022-12-11T23:51:20.769Z,2.35
2022-12-11T23:56:26.709Z,2.06
